sensor_id;sensor_type;location;lat;lon;timestamp;P1;durP1;ratioP1;P2;durP2;ratioP2
20511;SDS011;10414;52.074;5.126;2023-08-30T00:01:31;10.68;;;6.18;;
20511;SDS011;10414;52.074;5.126;2023-08-30T00:03:58;10.80;;;6.55;;
20511;SDS011;10414;52.074;5.126;2023-08-30T00:06:25;12.32;;;7.13;;
20511;SDS011;10414;52.074;5.126;2023-08-30T00:08:55;14.23;;;6.80;;
20511;SDS011;10414;52.074;5.126;2023-08-30T00:11:22;10.35;;;6.53;;
20511;SDS011;10414;52.074;5.126;2023-08-30T00:13:52;11.48;;;6.53;;
20511;SDS011;10414;52.074;5.126;2023-08-30T00:16:21;11.40;;;6.50;;
20511;SDS011;10414;52.074;5.126;2023-08-30T00:18:51;12.50;;;7.00;;
20511;SDS011;10414;52.074;5.126;2023-08-30T00:21:17;12.43;;;6.75;;
20511;SDS011;10414;52.074;5.126;2023-08-30T00:23:44;11.38;;;6.45;;
20511;SDS011;10414;52.074;5.126;2023-08-30T00:26:11;11.02;;;6.82;;
20511;SDS011;10414;52.074;5.126;2023-08-30T00:28:43;9.43;;;6.07;;
20511;SDS011;10414;52.074;5.126;2023-08-30T00:31:11;12.20;;;6.45;;
20511;SDS011;10414;52.074;5.126;2023-08-30T00:33:38;10.63;;;6.68;;
20511;SDS011;10414;52.074;5.126;2023-08-30T00:36:06;10.65;;;6.40;;
20511;SDS011;10414;52.074;5.126;2023-08-30T00:38:33;10.50;;;6.50;;
20511;SDS011;10414;52.074;5.126;2023-08-30T00:41:00;10.90;;;6.50;;
20511;SDS011;10414;52.074;5.126;2023-08-30T00:43:27;10.95;;;6.15;;
20511;SDS011;10414;52.074;5.126;2023-08-30T00:45:53;12.32;;;6.32;;
20511;SDS011;10414;52.074;5.126;2023-08-30T00:48:26;13.15;;;6.25;;
20511;SDS011;10414;52.074;5.126;2023-08-30T00:50:56;10.98;;;6.47;;
20511;SDS011;10414;52.074;5.126;2023-08-30T00:53:25;9.75;;;6.22;;
20511;SDS011;10414;52.074;5.126;2023-08-30T00:55:57;10.50;;;6.45;;
20511;SDS011;10414;52.074;5.126;2023-08-30T00:58:24;10.93;;;6.13;;
20511;SDS011;10414;52.074;5.126;2023-08-30T01:00:52;9.75;;;6.05;;
20511;SDS011;10414;52.074;5.126;2023-08-30T01:03:25;8.93;;;5.40;;
20511;SDS011;10414;52.074;5.126;2023-08-30T01:05:54;10.25;;;6.10;;
20511;SDS011;10414;52.074;5.126;2023-08-30T01:08:20;12.40;;;6.20;;
20511;SDS011;10414;52.074;5.126;2023-08-30T01:10:57;10.43;;;5.68;;
20511;SDS011;10414;52.074;5.126;2023-08-30T01:13:27;9.38;;;5.78;;
20511;SDS011;10414;52.074;5.126;2023-08-30T01:15:56;10.43;;;6.13;;
20511;SDS011;10414;52.074;5.126;2023-08-30T01:18:25;12.48;;;6.25;;
20511;SDS011;10414;52.074;5.126;2023-08-30T01:20:54;12.52;;;6.10;;
20511;SDS011;10414;52.074;5.126;2023-08-30T01:23:25;11.50;;;6.45;;
20511;SDS011;10414;52.074;5.126;2023-08-30T01:26:08;12.43;;;6.10;;
20511;SDS011;10414;52.074;5.126;2023-08-30T01:28:44;11.45;;;5.35;;
20511;SDS011;10414;52.074;5.126;2023-08-30T01:31:13;11.13;;;5.63;;
20511;SDS011;10414;52.074;5.126;2023-08-30T01:33:41;10.63;;;5.68;;
20511;SDS011;10414;52.074;5.126;2023-08-30T01:36:08;10.07;;;5.80;;
20511;SDS011;10414;52.074;5.126;2023-08-30T01:38:35;10.40;;;6.20;;
20511;SDS011;10414;52.074;5.126;2023-08-30T01:41:04;12.35;;;5.82;;
20511;SDS011;10414;52.074;5.126;2023-08-30T01:43:31;11.98;;;6.07;;
20511;SDS011;10414;52.074;5.126;2023-08-30T01:46:00;10.38;;;5.55;;
20511;SDS011;10414;52.074;5.126;2023-08-30T01:48:27;11.32;;;5.90;;
20511;SDS011;10414;52.074;5.126;2023-08-30T01:50:55;10.73;;;5.75;;
20511;SDS011;10414;52.074;5.126;2023-08-30T01:53:26;10.38;;;5.95;;
20511;SDS011;10414;52.074;5.126;2023-08-30T01:55:54;10.55;;;6.15;;
20511;SDS011;10414;52.074;5.126;2023-08-30T01:58:21;9.77;;;5.80;;
20511;SDS011;10414;52.074;5.126;2023-08-30T02:00:48;13.55;;;6.53;;
20511;SDS011;10414;52.074;5.126;2023-08-30T02:03:16;10.68;;;6.13;;
20511;SDS011;10414;52.074;5.126;2023-08-30T02:05:48;11.05;;;5.95;;
20511;SDS011;10414;52.074;5.126;2023-08-30T02:08:22;11.90;;;6.40;;
20511;SDS011;10414;52.074;5.126;2023-08-30T02:11:01;11.15;;;6.60;;
20511;SDS011;10414;52.074;5.126;2023-08-30T02:13:34;11.95;;;6.40;;
20511;SDS011;10414;52.074;5.126;2023-08-30T02:16:04;12.38;;;6.95;;
20511;SDS011;10414;52.074;5.126;2023-08-30T02:18:33;12.23;;;6.60;;
20511;SDS011;10414;52.074;5.126;2023-08-30T02:21:01;11.68;;;6.28;;
20511;SDS011;10414;52.074;5.126;2023-08-30T02:23:28;10.70;;;6.25;;
20511;SDS011;10414;52.074;5.126;2023-08-30T02:25:55;12.63;;;6.30;;
20511;SDS011;10414;52.074;5.126;2023-08-30T02:28:22;11.07;;;6.80;;
20511;SDS011;10414;52.074;5.126;2023-08-30T02:30:52;13.63;;;7.03;;
20511;SDS011;10414;52.074;5.126;2023-08-30T02:33:19;15.93;;;7.15;;
20511;SDS011;10414;52.074;5.126;2023-08-30T02:35:47;12.10;;;6.82;;
20511;SDS011;10414;52.074;5.126;2023-08-30T02:38:14;12.75;;;7.40;;
20511;SDS011;10414;52.074;5.126;2023-08-30T02:40:41;14.00;;;7.57;;
20511;SDS011;10414;52.074;5.126;2023-08-30T02:43:08;12.52;;;7.22;;
20511;SDS011;10414;52.074;5.126;2023-08-30T02:45:35;13.23;;;7.50;;
20511;SDS011;10414;52.074;5.126;2023-08-30T02:48:02;15.18;;;8.13;;
20511;SDS011;10414;52.074;5.126;2023-08-30T02:50:29;12.27;;;7.20;;
20511;SDS011;10414;52.074;5.126;2023-08-30T02:52:58;14.70;;;7.47;;
20511;SDS011;10414;52.074;5.126;2023-08-30T02:55:24;14.52;;;7.95;;
20511;SDS011;10414;52.074;5.126;2023-08-30T02:57:51;14.80;;;7.68;;
20511;SDS011;10414;52.074;5.126;2023-08-30T03:00:24;15.63;;;7.57;;
20511;SDS011;10414;52.074;5.126;2023-08-30T03:02:51;13.88;;;7.40;;
20511;SDS011;10414;52.074;5.126;2023-08-30T03:05:18;15.25;;;7.55;;
20511;SDS011;10414;52.074;5.126;2023-08-30T03:07:45;12.77;;;8.07;;
20511;SDS011;10414;52.074;5.126;2023-08-30T03:10:17;14.00;;;7.57;;
20511;SDS011;10414;52.074;5.126;2023-08-30T03:12:44;12.50;;;7.68;;
20511;SDS011;10414;52.074;5.126;2023-08-30T03:15:14;13.77;;;7.83;;
20511;SDS011;10414;52.074;5.126;2023-08-30T03:17:41;14.00;;;8.30;;
20511;SDS011;10414;52.074;5.126;2023-08-30T03:20:08;14.93;;;8.10;;
20511;SDS011;10414;52.074;5.126;2023-08-30T03:22:38;13.27;;;7.60;;
20511;SDS011;10414;52.074;5.126;2023-08-30T03:25:05;17.30;;;8.65;;
20511;SDS011;10414;52.074;5.126;2023-08-30T03:27:35;15.38;;;8.27;;
20511;SDS011;10414;52.074;5.126;2023-08-30T03:30:04;14.60;;;8.23;;
20511;SDS011;10414;52.074;5.126;2023-08-30T03:32:32;15.07;;;8.80;;
20511;SDS011;10414;52.074;5.126;2023-08-30T03:34:58;16.92;;;8.27;;
20511;SDS011;10414;52.074;5.126;2023-08-30T03:37:25;15.27;;;8.43;;
20511;SDS011;10414;52.074;5.126;2023-08-30T03:39:54;12.90;;;8.23;;
20511;SDS011;10414;52.074;5.126;2023-08-30T03:42:20;17.42;;;8.88;;
20511;SDS011;10414;52.074;5.126;2023-08-30T03:44:49;16.95;;;8.70;;
20511;SDS011;10414;52.074;5.126;2023-08-30T03:47:16;15.73;;;8.93;;
20511;SDS011;10414;52.074;5.126;2023-08-30T03:49:43;16.35;;;8.80;;
20511;SDS011;10414;52.074;5.126;2023-08-30T03:52:10;17.67;;;9.10;;
20511;SDS011;10414;52.074;5.126;2023-08-30T03:54:38;17.70;;;9.30;;
20511;SDS011;10414;52.074;5.126;2023-08-30T03:57:04;14.88;;;8.77;;
20511;SDS011;10414;52.074;5.126;2023-08-30T03:59:36;15.68;;;8.57;;
20511;SDS011;10414;52.074;5.126;2023-08-30T04:02:04;14.25;;;7.85;;
20511;SDS011;10414;52.074;5.126;2023-08-30T04:04:31;15.75;;;8.57;;
20511;SDS011;10414;52.074;5.126;2023-08-30T04:06:58;14.45;;;8.32;;
20511;SDS011;10414;52.074;5.126;2023-08-30T04:09:25;15.50;;;8.75;;
20511;SDS011;10414;52.074;5.126;2023-08-30T04:11:51;16.50;;;8.70;;
20511;SDS011;10414;52.074;5.126;2023-08-30T04:14:18;15.48;;;8.90;;
20511;SDS011;10414;52.074;5.126;2023-08-30T04:16:45;17.38;;;9.63;;
20511;SDS011;10414;52.074;5.126;2023-08-30T04:19:13;16.15;;;8.38;;
20511;SDS011;10414;52.074;5.126;2023-08-30T04:21:40;17.55;;;9.63;;
20511;SDS011;10414;52.074;5.126;2023-08-30T04:24:07;17.05;;;9.00;;
20511;SDS011;10414;52.074;5.126;2023-08-30T04:26:34;15.88;;;8.98;;
20511;SDS011;10414;52.074;5.126;2023-08-30T04:29:03;17.63;;;9.00;;
20511;SDS011;10414;52.074;5.126;2023-08-30T04:31:35;15.70;;;8.70;;
20511;SDS011;10414;52.074;5.126;2023-08-30T04:34:01;16.85;;;9.00;;
20511;SDS011;10414;52.074;5.126;2023-08-30T04:36:30;15.10;;;8.75;;
20511;SDS011;10414;52.074;5.126;2023-08-30T04:38:56;16.13;;;9.10;;
20511;SDS011;10414;52.074;5.126;2023-08-30T04:41:23;15.50;;;8.30;;
20511;SDS011;10414;52.074;5.126;2023-08-30T04:43:50;14.75;;;8.50;;
20511;SDS011;10414;52.074;5.126;2023-08-30T04:46:17;15.65;;;9.18;;
20511;SDS011;10414;52.074;5.126;2023-08-30T04:48:44;15.48;;;8.43;;
20511;SDS011;10414;52.074;5.126;2023-08-30T04:51:11;14.88;;;8.45;;
20511;SDS011;10414;52.074;5.126;2023-08-30T04:53:40;16.30;;;9.45;;
20511;SDS011;10414;52.074;5.126;2023-08-30T04:56:11;15.48;;;8.63;;
20511;SDS011;10414;52.074;5.126;2023-08-30T04:58:42;14.57;;;8.68;;
20511;SDS011;10414;52.074;5.126;2023-08-30T05:01:09;14.90;;;8.23;;
20511;SDS011;10414;52.074;5.126;2023-08-30T05:03:38;16.80;;;9.15;;
20511;SDS011;10414;52.074;5.126;2023-08-30T05:06:07;15.20;;;8.35;;
20511;SDS011;10414;52.074;5.126;2023-08-30T05:08:36;13.52;;;8.07;;
20511;SDS011;10414;52.074;5.126;2023-08-30T05:11:04;15.65;;;7.80;;
20511;SDS011;10414;52.074;5.126;2023-08-30T05:13:31;16.35;;;8.52;;
20511;SDS011;10414;52.074;5.126;2023-08-30T05:15:57;15.55;;;8.80;;
20511;SDS011;10414;52.074;5.126;2023-08-30T05:18:24;15.40;;;8.70;;
20511;SDS011;10414;52.074;5.126;2023-08-30T05:20:51;16.55;;;7.90;;
20511;SDS011;10414;52.074;5.126;2023-08-30T05:23:18;13.55;;;7.82;;
20511;SDS011;10414;52.074;5.126;2023-08-30T05:25:45;17.15;;;8.52;;
20511;SDS011;10414;52.074;5.126;2023-08-30T05:28:13;14.00;;;8.43;;
20511;SDS011;10414;52.074;5.126;2023-08-30T05:30:42;13.43;;;7.55;;
20511;SDS011;10414;52.074;5.126;2023-08-30T05:33:10;13.43;;;7.65;;
20511;SDS011;10414;52.074;5.126;2023-08-30T05:35:38;14.02;;;7.80;;
20511;SDS011;10414;52.074;5.126;2023-08-30T05:38:05;17.35;;;8.07;;
20511;SDS011;10414;52.074;5.126;2023-08-30T05:40:32;14.27;;;7.40;;
20511;SDS011;10414;52.074;5.126;2023-08-30T05:42:59;13.70;;;7.60;;
20511;SDS011;10414;52.074;5.126;2023-08-30T05:45:27;16.67;;;8.52;;
20511;SDS011;10414;52.074;5.126;2023-08-30T05:47:56;15.75;;;8.57;;
20511;SDS011;10414;52.074;5.126;2023-08-30T05:50:22;13.27;;;7.90;;
20511;SDS011;10414;52.074;5.126;2023-08-30T05:52:49;15.88;;;8.13;;
20511;SDS011;10414;52.074;5.126;2023-08-30T05:55:16;14.05;;;7.57;;
20511;SDS011;10414;52.074;5.126;2023-08-30T05:57:46;14.23;;;7.93;;
20511;SDS011;10414;52.074;5.126;2023-08-30T06:00:15;13.40;;;7.88;;
20511;SDS011;10414;52.074;5.126;2023-08-30T06:02:44;15.20;;;7.97;;
20511;SDS011;10414;52.074;5.126;2023-08-30T06:05:11;12.70;;;7.40;;
20511;SDS011;10414;52.074;5.126;2023-08-30T06:07:37;14.20;;;7.22;;
20511;SDS011;10414;52.074;5.126;2023-08-30T06:10:07;12.97;;;7.13;;
20511;SDS011;10414;52.074;5.126;2023-08-30T06:12:35;15.98;;;8.70;;
20511;SDS011;10414;52.074;5.126;2023-08-30T06:15:07;13.07;;;8.20;;
20511;SDS011;10414;52.074;5.126;2023-08-30T06:17:36;15.18;;;8.15;;
20511;SDS011;10414;52.074;5.126;2023-08-30T06:20:13;13.77;;;8.32;;
20511;SDS011;10414;52.074;5.126;2023-08-30T06:22:40;17.13;;;9.30;;
20511;SDS011;10414;52.074;5.126;2023-08-30T06:25:08;15.55;;;8.52;;
20511;SDS011;10414;52.074;5.126;2023-08-30T06:27:40;15.18;;;9.07;;
20511;SDS011;10414;52.074;5.126;2023-08-30T06:30:08;15.63;;;9.30;;
20511;SDS011;10414;52.074;5.126;2023-08-30T06:32:36;17.80;;;9.43;;
20511;SDS011;10414;52.074;5.126;2023-08-30T06:35:03;18.40;;;7.72;;
20511;SDS011;10414;52.074;5.126;2023-08-30T06:37:31;15.52;;;8.85;;
20511;SDS011;10414;52.074;5.126;2023-08-30T06:39:59;19.95;;;9.45;;
20511;SDS011;10414;52.074;5.126;2023-08-30T06:42:26;19.30;;;8.90;;
20511;SDS011;10414;52.074;5.126;2023-08-30T06:44:55;17.13;;;10.00;;
20511;SDS011;10414;52.074;5.126;2023-08-30T06:47:22;15.43;;;8.98;;
20511;SDS011;10414;52.074;5.126;2023-08-30T06:49:49;14.02;;;8.82;;
20511;SDS011;10414;52.074;5.126;2023-08-30T06:52:21;15.90;;;9.38;;
20511;SDS011;10414;52.074;5.126;2023-08-30T06:54:51;18.02;;;8.85;;
20511;SDS011;10414;52.074;5.126;2023-08-30T06:57:20;14.18;;;9.00;;
20511;SDS011;10414;52.074;5.126;2023-08-30T06:59:47;17.67;;;9.10;;
20511;SDS011;10414;52.074;5.126;2023-08-30T07:02:14;16.75;;;9.25;;
20511;SDS011;10414;52.074;5.126;2023-08-30T07:04:42;19.35;;;10.18;;
20511;SDS011;10414;52.074;5.126;2023-08-30T07:07:09;16.95;;;9.35;;
20511;SDS011;10414;52.074;5.126;2023-08-30T07:09:40;17.65;;;9.13;;
20511;SDS011;10414;52.074;5.126;2023-08-30T07:12:11;20.58;;;10.43;;
20511;SDS011;10414;52.074;5.126;2023-08-30T07:14:40;18.98;;;10.50;;
20511;SDS011;10414;52.074;5.126;2023-08-30T07:17:07;19.02;;;10.30;;
20511;SDS011;10414;52.074;5.126;2023-08-30T07:19:37;18.48;;;10.65;;
20511;SDS011;10414;52.074;5.126;2023-08-30T07:22:03;21.67;;;10.82;;
20511;SDS011;10414;52.074;5.126;2023-08-30T07:24:30;16.48;;;9.32;;
20511;SDS011;10414;52.074;5.126;2023-08-30T07:26:57;17.95;;;9.88;;
20511;SDS011;10414;52.074;5.126;2023-08-30T07:29:28;17.93;;;9.87;;
20511;SDS011;10414;52.074;5.126;2023-08-30T07:31:55;17.50;;;9.57;;
20511;SDS011;10414;52.074;5.126;2023-08-30T07:34:22;16.90;;;9.32;;
20511;SDS011;10414;52.074;5.126;2023-08-30T07:36:48;17.35;;;8.90;;
20511;SDS011;10414;52.074;5.126;2023-08-30T07:39:15;14.57;;;8.70;;
20511;SDS011;10414;52.074;5.126;2023-08-30T07:41:42;14.93;;;7.13;;
20511;SDS011;10414;52.074;5.126;2023-08-30T07:44:09;17.35;;;7.93;;
20511;SDS011;10414;52.074;5.126;2023-08-30T07:46:39;16.63;;;7.95;;
20511;SDS011;10414;52.074;5.126;2023-08-30T07:49:08;12.77;;;7.95;;
20511;SDS011;10414;52.074;5.126;2023-08-30T07:51:35;16.10;;;8.43;;
20511;SDS011;10414;52.074;5.126;2023-08-30T07:54:02;14.45;;;8.13;;
20511;SDS011;10414;52.074;5.126;2023-08-30T07:56:28;13.27;;;7.53;;
20511;SDS011;10414;52.074;5.126;2023-08-30T07:58:56;14.48;;;7.70;;
20511;SDS011;10414;52.074;5.126;2023-08-30T08:01:23;12.82;;;6.53;;
20511;SDS011;10414;52.074;5.126;2023-08-30T08:03:51;10.57;;;6.18;;
20511;SDS011;10414;52.074;5.126;2023-08-30T08:06:18;10.90;;;6.38;;
20511;SDS011;10414;52.074;5.126;2023-08-30T08:08:47;10.55;;;6.13;;
20511;SDS011;10414;52.074;5.126;2023-08-30T08:11:14;9.57;;;5.38;;
20511;SDS011;10414;52.074;5.126;2023-08-30T08:13:41;10.75;;;6.55;;
20511;SDS011;10414;52.074;5.126;2023-08-30T08:16:08;11.35;;;6.10;;
20511;SDS011;10414;52.074;5.126;2023-08-30T08:18:34;10.70;;;5.95;;
20511;SDS011;10414;52.074;5.126;2023-08-30T08:21:03;11.68;;;6.13;;
20511;SDS011;10414;52.074;5.126;2023-08-30T08:23:32;12.63;;;6.22;;
20511;SDS011;10414;52.074;5.126;2023-08-30T08:25:59;10.02;;;5.80;;
20511;SDS011;10414;52.074;5.126;2023-08-30T08:28:27;11.88;;;5.30;;
20511;SDS011;10414;52.074;5.126;2023-08-30T08:30:54;11.13;;;6.20;;
20511;SDS011;10414;52.074;5.126;2023-08-30T08:33:21;10.50;;;6.47;;
20511;SDS011;10414;52.074;5.126;2023-08-30T08:35:49;11.25;;;6.30;;
20511;SDS011;10414;52.074;5.126;2023-08-30T08:38:17;10.35;;;6.03;;
20511;SDS011;10414;52.074;5.126;2023-08-30T08:40:44;10.20;;;6.30;;
20511;SDS011;10414;52.074;5.126;2023-08-30T08:43:11;9.25;;;5.88;;
20511;SDS011;10414;52.074;5.126;2023-08-30T08:45:39;10.65;;;6.93;;
20511;SDS011;10414;52.074;5.126;2023-08-30T08:48:06;10.52;;;6.47;;
20511;SDS011;10414;52.074;5.126;2023-08-30T08:50:33;12.35;;;6.70;;
20511;SDS011;10414;52.074;5.126;2023-08-30T08:53:00;12.75;;;7.53;;
20511;SDS011;10414;52.074;5.126;2023-08-30T08:55:33;11.65;;;7.90;;
20511;SDS011;10414;52.074;5.126;2023-08-30T08:58:01;11.43;;;8.02;;
20511;SDS011;10414;52.074;5.126;2023-08-30T09:00:29;11.18;;;7.57;;
20511;SDS011;10414;52.074;5.126;2023-08-30T09:02:57;12.52;;;8.98;;
20511;SDS011;10414;52.074;5.126;2023-08-30T09:05:25;14.68;;;9.20;;
20511;SDS011;10414;52.074;5.126;2023-08-30T09:07:53;16.65;;;8.93;;
20511;SDS011;10414;52.074;5.126;2023-08-30T09:10:23;12.93;;;9.15;;
20511;SDS011;10414;52.074;5.126;2023-08-30T09:12:52;13.77;;;8.40;;
20511;SDS011;10414;52.074;5.126;2023-08-30T09:15:18;14.65;;;8.13;;
20511;SDS011;10414;52.074;5.126;2023-08-30T09:17:46;12.15;;;8.65;;
20511;SDS011;10414;52.074;5.126;2023-08-30T09:20:13;13.30;;;7.70;;
20511;SDS011;10414;52.074;5.126;2023-08-30T09:22:45;12.93;;;7.90;;
20511;SDS011;10414;52.074;5.126;2023-08-30T09:25:22;12.40;;;7.75;;
20511;SDS011;10414;52.074;5.126;2023-08-30T09:27:52;11.30;;;6.63;;
20511;SDS011;10414;52.074;5.126;2023-08-30T09:30:23;10.60;;;7.25;;
20511;SDS011;10414;52.074;5.126;2023-08-30T09:32:50;10.80;;;6.47;;
20511;SDS011;10414;52.074;5.126;2023-08-30T09:35:17;9.13;;;6.70;;
20511;SDS011;10414;52.074;5.126;2023-08-30T09:37:45;10.70;;;6.88;;
20511;SDS011;10414;52.074;5.126;2023-08-30T09:40:12;11.13;;;6.28;;
20511;SDS011;10414;52.074;5.126;2023-08-30T09:42:44;9.50;;;6.20;;
20511;SDS011;10414;52.074;5.126;2023-08-30T09:45:18;9.00;;;6.10;;
20511;SDS011;10414;52.074;5.126;2023-08-30T09:47:47;9.30;;;6.40;;
20511;SDS011;10414;52.074;5.126;2023-08-30T09:50:18;10.88;;;6.47;;
20511;SDS011;10414;52.074;5.126;2023-08-30T09:52:46;11.10;;;6.53;;
20511;SDS011;10414;52.074;5.126;2023-08-30T09:55:14;8.90;;;6.78;;
20511;SDS011;10414;52.074;5.126;2023-08-30T09:57:41;9.25;;;6.25;;
20511;SDS011;10414;52.074;5.126;2023-08-30T10:00:09;7.20;;;5.60;;
20511;SDS011;10414;52.074;5.126;2023-08-30T10:02:39;8.25;;;5.75;;
20511;SDS011;10414;52.074;5.126;2023-08-30T10:05:08;8.70;;;5.30;;
20511;SDS011;10414;52.074;5.126;2023-08-30T10:07:36;7.07;;;5.07;;
20511;SDS011;10414;52.074;5.126;2023-08-30T10:10:04;6.70;;;5.43;;
20511;SDS011;10414;52.074;5.126;2023-08-30T10:12:32;7.22;;;5.60;;
20511;SDS011;10414;52.074;5.126;2023-08-30T10:14:59;7.55;;;4.45;;
20511;SDS011;10414;52.074;5.126;2023-08-30T10:17:27;6.72;;;4.63;;
20511;SDS011;10414;52.074;5.126;2023-08-30T10:20:01;5.90;;;4.03;;
20511;SDS011;10414;52.074;5.126;2023-08-30T10:22:32;5.38;;;3.95;;
20511;SDS011;10414;52.074;5.126;2023-08-30T10:25:02;7.10;;;3.50;;
20511;SDS011;10414;52.074;5.126;2023-08-30T10:30:00;6.25;;;2.90;;
20511;SDS011;10414;52.074;5.126;2023-08-30T10:32:28;5.72;;;2.92;;
20511;SDS011;10414;52.074;5.126;2023-08-30T10:34:56;6.55;;;2.88;;
20511;SDS011;10414;52.074;5.126;2023-08-30T10:37:29;7.43;;;2.85;;
20511;SDS011;10414;52.074;5.126;2023-08-30T10:39:59;6.85;;;2.70;;
20511;SDS011;10414;52.074;5.126;2023-08-30T10:42:28;8.60;;;2.95;;
20511;SDS011;10414;52.074;5.126;2023-08-30T10:44:56;7.82;;;3.08;;
20511;SDS011;10414;52.074;5.126;2023-08-30T10:47:26;7.90;;;2.85;;
20511;SDS011;10414;52.074;5.126;2023-08-30T10:49:54;6.18;;;2.40;;
20511;SDS011;10414;52.074;5.126;2023-08-30T10:52:23;5.82;;;2.58;;
20511;SDS011;10414;52.074;5.126;2023-08-30T10:54:50;8.10;;;2.80;;
20511;SDS011;10414;52.074;5.126;2023-08-30T10:57:18;8.25;;;2.38;;
20511;SDS011;10414;52.074;5.126;2023-08-30T11:00:05;6.30;;;2.60;;
20511;SDS011;10414;52.074;5.126;2023-08-30T11:02:36;9.48;;;2.60;;
20511;SDS011;10414;52.074;5.126;2023-08-30T11:05:05;8.07;;;2.78;;
20511;SDS011;10414;52.074;5.126;2023-08-30T11:07:35;6.75;;;2.63;;
20511;SDS011;10414;52.074;5.126;2023-08-30T11:10:04;8.27;;;2.40;;
20511;SDS011;10414;52.074;5.126;2023-08-30T11:12:31;6.88;;;2.50;;
20511;SDS011;10414;52.074;5.126;2023-08-30T11:14:58;8.48;;;2.35;;
20511;SDS011;10414;52.074;5.126;2023-08-30T11:17:28;8.55;;;2.50;;
20511;SDS011;10414;52.074;5.126;2023-08-30T11:20:05;8.95;;;2.53;;
20511;SDS011;10414;52.074;5.126;2023-08-30T11:22:36;8.95;;;2.55;;
20511;SDS011;10414;52.074;5.126;2023-08-30T11:25:07;11.13;;;2.72;;
20511;SDS011;10414;52.074;5.126;2023-08-30T11:27:35;7.72;;;2.50;;
20511;SDS011;10414;52.074;5.126;2023-08-30T11:30:02;9.25;;;2.30;;
20511;SDS011;10414;52.074;5.126;2023-08-30T11:32:31;10.95;;;2.33;;
20511;SDS011;10414;52.074;5.126;2023-08-30T11:34:59;7.43;;;2.10;;
20511;SDS011;10414;52.074;5.126;2023-08-30T11:37:26;12.77;;;2.28;;
20511;SDS011;10414;52.074;5.126;2023-08-30T11:39:56;7.93;;;2.30;;
20511;SDS011;10414;52.074;5.126;2023-08-30T11:42:23;7.50;;;2.13;;
20511;SDS011;10414;52.074;5.126;2023-08-30T11:44:50;8.07;;;2.17;;
20511;SDS011;10414;52.074;5.126;2023-08-30T11:47:19;7.43;;;2.03;;
20511;SDS011;10414;52.074;5.126;2023-08-30T11:49:47;8.95;;;2.20;;
20511;SDS011;10414;52.074;5.126;2023-08-30T11:52:15;8.85;;;2.42;;
20511;SDS011;10414;52.074;5.126;2023-08-30T11:54:42;8.35;;;2.00;;
20511;SDS011;10414;52.074;5.126;2023-08-30T11:57:10;8.18;;;2.10;;
20511;SDS011;10414;52.074;5.126;2023-08-30T11:59:39;9.52;;;1.95;;
20511;SDS011;10414;52.074;5.126;2023-08-30T12:02:06;9.32;;;2.10;;
20511;SDS011;10414;52.074;5.126;2023-08-30T12:04:39;6.60;;;1.80;;
20511;SDS011;10414;52.074;5.126;2023-08-30T12:07:06;9.23;;;1.95;;
20511;SDS011;10414;52.074;5.126;2023-08-30T12:09:34;6.80;;;1.88;;
20511;SDS011;10414;52.074;5.126;2023-08-30T12:12:04;11.68;;;2.30;;
20511;SDS011;10414;52.074;5.126;2023-08-30T12:14:34;8.75;;;2.00;;
20511;SDS011;10414;52.074;5.126;2023-08-30T12:17:04;10.20;;;2.22;;
20511;SDS011;10414;52.074;5.126;2023-08-30T12:19:33;12.23;;;1.88;;
20511;SDS011;10414;52.074;5.126;2023-08-30T12:22:03;9.10;;;2.00;;
20511;SDS011;10414;52.074;5.126;2023-08-30T12:24:42;8.32;;;2.88;;
20511;SDS011;10414;52.074;5.126;2023-08-30T12:27:10;6.25;;;2.00;;
20511;SDS011;10414;52.074;5.126;2023-08-30T12:29:38;8.70;;;2.08;;
20511;SDS011;10414;52.074;5.126;2023-08-30T12:32:08;11.38;;;2.33;;
20511;SDS011;10414;52.074;5.126;2023-08-30T12:34:37;9.05;;;1.75;;
20511;SDS011;10414;52.074;5.126;2023-08-30T12:37:06;8.30;;;2.00;;
20511;SDS011;10414;52.074;5.126;2023-08-30T12:39:33;7.63;;;1.70;;
20511;SDS011;10414;52.074;5.126;2023-08-30T12:42:00;6.22;;;1.52;;
20511;SDS011;10414;52.074;5.126;2023-08-30T12:44:27;7.25;;;1.70;;
20511;SDS011;10414;52.074;5.126;2023-08-30T12:46:58;7.80;;;1.63;;
20511;SDS011;10414;52.074;5.126;2023-08-30T12:49:25;7.38;;;1.65;;
20511;SDS011;10414;52.074;5.126;2023-08-30T12:51:51;6.68;;;1.75;;
20511;SDS011;10414;52.074;5.126;2023-08-30T12:54:18;6.85;;;1.65;;
20511;SDS011;10414;52.074;5.126;2023-08-30T12:56:45;6.93;;;1.80;;
20511;SDS011;10414;52.074;5.126;2023-08-30T12:59:12;6.60;;;1.85;;
20511;SDS011;10414;52.074;5.126;2023-08-30T13:01:39;10.02;;;1.85;;
20511;SDS011;10414;52.074;5.126;2023-08-30T13:04:09;8.20;;;1.73;;
20511;SDS011;10414;52.074;5.126;2023-08-30T13:06:36;6.55;;;1.52;;
20511;SDS011;10414;52.074;5.126;2023-08-30T13:09:03;7.70;;;1.92;;
20511;SDS011;10414;52.074;5.126;2023-08-30T13:11:30;4.57;;;1.33;;
20511;SDS011;10414;52.074;5.126;2023-08-30T13:13:58;8.48;;;1.90;;
20511;SDS011;10414;52.074;5.126;2023-08-30T13:16:25;7.90;;;1.83;;
20511;SDS011;10414;52.074;5.126;2023-08-30T13:18:52;7.57;;;2.10;;
20511;SDS011;10414;52.074;5.126;2023-08-30T13:21:20;6.05;;;1.73;;
20511;SDS011;10414;52.074;5.126;2023-08-30T13:23:47;11.63;;;2.38;;
20511;SDS011;10414;52.074;5.126;2023-08-30T13:26:14;11.73;;;2.25;;
20511;SDS011;10414;52.074;5.126;2023-08-30T13:28:43;8.60;;;2.20;;
20511;SDS011;10414;52.074;5.126;2023-08-30T13:31:10;7.03;;;2.00;;
20511;SDS011;10414;52.074;5.126;2023-08-30T13:33:36;7.18;;;1.60;;
20511;SDS011;10414;52.074;5.126;2023-08-30T13:36:03;6.10;;;1.23;;
20511;SDS011;10414;52.074;5.126;2023-08-30T13:38:32;6.47;;;1.50;;
20511;SDS011;10414;52.074;5.126;2023-08-30T13:40:59;6.53;;;1.80;;
20511;SDS011;10414;52.074;5.126;2023-08-30T13:43:26;9.85;;;1.85;;
20511;SDS011;10414;52.074;5.126;2023-08-30T13:46:01;7.95;;;1.90;;
20511;SDS011;10414;52.074;5.126;2023-08-30T13:48:29;8.75;;;1.80;;
20511;SDS011;10414;52.074;5.126;2023-08-30T13:50:56;6.50;;;1.90;;
20511;SDS011;10414;52.074;5.126;2023-08-30T13:53:23;7.20;;;1.77;;
20511;SDS011;10414;52.074;5.126;2023-08-30T13:55:54;6.70;;;1.90;;
20511;SDS011;10414;52.074;5.126;2023-08-30T13:58:24;6.55;;;2.60;;
20511;SDS011;10414;52.074;5.126;2023-08-30T14:00:54;8.02;;;2.50;;
20511;SDS011;10414;52.074;5.126;2023-08-30T14:03:21;8.35;;;2.17;;
20511;SDS011;10414;52.074;5.126;2023-08-30T14:05:47;7.57;;;2.20;;
20511;SDS011;10414;52.074;5.126;2023-08-30T14:08:14;8.25;;;2.63;;
20511;SDS011;10414;52.074;5.126;2023-08-30T14:10:41;8.63;;;2.80;;
20511;SDS011;10414;52.074;5.126;2023-08-30T14:13:15;8.00;;;2.80;;
20511;SDS011;10414;52.074;5.126;2023-08-30T14:15:42;6.63;;;2.30;;
20511;SDS011;10414;52.074;5.126;2023-08-30T14:18:08;8.57;;;2.75;;
20511;SDS011;10414;52.074;5.126;2023-08-30T14:20:36;7.85;;;2.60;;
20511;SDS011;10414;52.074;5.126;2023-08-30T14:23:03;7.70;;;2.25;;
20511;SDS011;10414;52.074;5.126;2023-08-30T14:25:30;10.20;;;2.92;;
20511;SDS011;10414;52.074;5.126;2023-08-30T14:27:56;6.82;;;2.70;;
20511;SDS011;10414;52.074;5.126;2023-08-30T14:30:26;8.82;;;2.40;;
20511;SDS011;10414;52.074;5.126;2023-08-30T14:32:54;6.78;;;2.45;;
20511;SDS011;10414;52.074;5.126;2023-08-30T14:35:27;11.20;;;2.20;;
20511;SDS011;10414;52.074;5.126;2023-08-30T14:37:56;5.05;;;1.85;;
20511;SDS011;10414;52.074;5.126;2023-08-30T14:40:26;7.47;;;2.07;;
20511;SDS011;10414;52.074;5.126;2023-08-30T14:42:52;7.32;;;2.00;;
20511;SDS011;10414;52.074;5.126;2023-08-30T14:45:19;7.90;;;1.90;;
20511;SDS011;10414;52.074;5.126;2023-08-30T14:47:53;6.00;;;1.60;;